sensor_id;sensor_type;location;lat;lon;timestamp;P1;durP1;ratioP1;P2;durP2;ratioP2
7583;SDS011;3833;41.764;26.204;2022-09-27T00:01:21;4.70;;;4.30;;
7583;SDS011;3833;41.764;26.204;2022-09-27T00:03:48;5.53;;;5.03;;
7583;SDS011;3833;41.764;26.204;2022-09-27T00:06:21;5.50;;;4.43;;
7583;SDS011;3833;41.764;26.204;2022-09-27T00:08:50;4.93;;;4.43;;
7583;SDS011;3833;41.764;26.204;2022-09-27T00:11:19;5.07;;;4.57;;
7583;SDS011;3833;41.764;26.204;2022-09-27T00:13:51;4.87;;;4.47;;
7583;SDS011;3833;41.764;26.204;2022-09-27T00:16:19;6.33;;;4.40;;
7583;SDS011;3833;41.764;26.204;2022-09-27T00:18:47;5.13;;;4.00;;
7583;SDS011;3833;41.764;26.204;2022-09-27T00:21:13;4.50;;;4.10;;
7583;SDS011;3833;41.764;26.204;2022-09-27T00:23:42;5.83;;;4.03;;
7583;SDS011;3833;41.764;26.204;2022-09-27T00:26:10;4.70;;;3.83;;
7583;SDS011;3833;41.764;26.204;2022-09-27T00:28:38;4.30;;;3.90;;
7583;SDS011;3833;41.764;26.204;2022-09-27T00:31:10;5.90;;;4.47;;
7583;SDS011;3833;41.764;26.204;2022-09-27T00:33:42;4.70;;;4.30;;
7583;SDS011;3833;41.764;26.204;2022-09-27T00:36:11;5.87;;;4.40;;
7583;SDS011;3833;41.764;26.204;2022-09-27T00:38:39;4.57;;;4.17;;
7583;SDS011;3833;41.764;26.204;2022-09-27T00:41:08;4.63;;;4.23;;
7583;SDS011;3833;41.764;26.204;2022-09-27T00:43:45;6.23;;;4.40;;
7583;SDS011;3833;41.764;26.204;2022-09-27T00:46:14;5.47;;;4.97;;
7583;SDS011;3833;41.764;26.204;2022-09-27T00:48:48;4.40;;;4.00;;
7583;SDS011;3833;41.764;26.204;2022-09-27T00:51:24;5.53;;;4.30;;
7583;SDS011;3833;41.764;26.204;2022-09-27T00:53:54;5.17;;;3.97;;
7583;SDS011;3833;41.764;26.204;2022-09-27T00:56:26;5.00;;;4.10;;
7583;SDS011;3833;41.764;26.204;2022-09-27T00:58:56;6.87;;;4.37;;
7583;SDS011;3833;41.764;26.204;2022-09-27T01:01:28;8.07;;;4.73;;
7583;SDS011;3833;41.764;26.204;2022-09-27T01:03:56;5.27;;;4.73;;
7583;SDS011;3833;41.764;26.204;2022-09-27T01:06:27;4.83;;;4.33;;
7583;SDS011;3833;41.764;26.204;2022-09-27T01:08:54;6.67;;;4.33;;
7583;SDS011;3833;41.764;26.204;2022-09-27T01:11:27;5.60;;;4.67;;
7583;SDS011;3833;41.764;26.204;2022-09-27T01:14:14;7.73;;;4.40;;
7583;SDS011;3833;41.764;26.204;2022-09-27T01:16:56;5.73;;;4.40;;
7583;SDS011;3833;41.764;26.204;2022-09-27T01:19:44;5.83;;;4.70;;
7583;SDS011;3833;41.764;26.204;2022-09-27T01:22:25;5.80;;;4.80;;
7583;SDS011;3833;41.764;26.204;2022-09-27T01:25:00;5.63;;;5.03;;
7583;SDS011;3833;41.764;26.204;2022-09-27T01:30:45;6.00;;;4.70;;
7583;SDS011;3833;41.764;26.204;2022-09-27T01:33:23;7.63;;;5.23;;
7583;SDS011;3833;41.764;26.204;2022-09-27T01:36:04;4.90;;;4.40;;
7583;SDS011;3833;41.764;26.204;2022-09-27T01:38:41;8.43;;;4.90;;
7583;SDS011;3833;41.764;26.204;2022-09-27T01:41:14;5.63;;;5.10;;
7583;SDS011;3833;41.764;26.204;2022-09-27T01:43:53;5.27;;;4.77;;
7583;SDS011;3833;41.764;26.204;2022-09-27T01:46:26;7.07;;;4.97;;
7583;SDS011;3833;41.764;26.204;2022-09-27T01:48:57;7.53;;;4.97;;
7583;SDS011;3833;41.764;26.204;2022-09-27T01:51:27;7.90;;;5.07;;
7583;SDS011;3833;41.764;26.204;2022-09-27T01:53:59;8.40;;;5.90;;
7583;SDS011;3833;41.764;26.204;2022-09-27T01:56:29;6.40;;;5.63;;
7583;SDS011;3833;41.764;26.204;2022-09-27T01:59:03;5.77;;;5.20;;
7583;SDS011;3833;41.764;26.204;2022-09-27T02:01:35;6.43;;;5.73;;
7583;SDS011;3833;41.764;26.204;2022-09-27T02:04:05;6.13;;;5.33;;
7583;SDS011;3833;41.764;26.204;2022-09-27T02:06:39;6.10;;;5.50;;
7583;SDS011;3833;41.764;26.204;2022-09-27T02:09:10;5.03;;;4.53;;
7583;SDS011;3833;41.764;26.204;2022-09-27T02:11:41;5.90;;;5.40;;
7583;SDS011;3833;41.764;26.204;2022-09-27T02:14:14;6.07;;;5.30;;
7583;SDS011;3833;41.764;26.204;2022-09-27T02:16:48;6.67;;;5.67;;
7583;SDS011;3833;41.764;26.204;2022-09-27T02:19:20;5.37;;;4.87;;
7583;SDS011;3833;41.764;26.204;2022-09-27T02:21:59;6.97;;;5.23;;
7583;SDS011;3833;41.764;26.204;2022-09-27T02:24:39;6.00;;;5.37;;
7583;SDS011;3833;41.764;26.204;2022-09-27T02:27:10;5.70;;;5.20;;
7583;SDS011;3833;41.764;26.204;2022-09-27T02:29:42;5.37;;;4.87;;
7583;SDS011;3833;41.764;26.204;2022-09-27T02:32:16;5.70;;;5.00;;
7583;SDS011;3833;41.764;26.204;2022-09-27T02:34:43;7.87;;;5.77;;
7583;SDS011;3833;41.764;26.204;2022-09-27T02:37:12;9.03;;;5.20;;
7583;SDS011;3833;41.764;26.204;2022-09-27T02:39:39;5.20;;;4.80;;
7583;SDS011;3833;41.764;26.204;2022-09-27T02:42:07;6.93;;;5.40;;
7583;SDS011;3833;41.764;26.204;2022-09-27T02:44:35;6.77;;;5.20;;
7583;SDS011;3833;41.764;26.204;2022-09-27T02:47:07;6.00;;;5.33;;
7583;SDS011;3833;41.764;26.204;2022-09-27T02:52:41;6.73;;;5.40;;
7583;SDS011;3833;41.764;26.204;2022-09-27T02:55:17;6.27;;;5.63;;
7583;SDS011;3833;41.764;26.204;2022-09-27T02:57:49;7.33;;;5.43;;
7583;SDS011;3833;41.764;26.204;2022-09-27T03:00:24;7.87;;;6.00;;
7583;SDS011;3833;41.764;26.204;2022-09-27T03:02:58;6.20;;;5.40;;
7583;SDS011;3833;41.764;26.204;2022-09-27T03:05:33;6.93;;;6.13;;
7583;SDS011;3833;41.764;26.204;2022-09-27T03:08:05;7.87;;;6.63;;
7583;SDS011;3833;41.764;26.204;2022-09-27T03:10:34;6.77;;;5.50;;
7583;SDS011;3833;41.764;26.204;2022-09-27T03:13:02;6.03;;;5.43;;
7583;SDS011;3833;41.764;26.204;2022-09-27T03:15:29;6.10;;;5.50;;
7583;SDS011;3833;41.764;26.204;2022-09-27T03:17:56;8.10;;;5.47;;
7583;SDS011;3833;41.764;26.204;2022-09-27T03:20:24;7.83;;;5.90;;
7583;SDS011;3833;41.764;26.204;2022-09-27T03:22:53;6.93;;;6.00;;
7583;SDS011;3833;41.764;26.204;2022-09-27T03:25:21;8.50;;;6.40;;
7583;SDS011;3833;41.764;26.204;2022-09-27T03:27:47;7.07;;;6.13;;
7583;SDS011;3833;41.764;26.204;2022-09-27T03:30:14;12.67;;;6.73;;
7583;SDS011;3833;41.764;26.204;2022-09-27T03:32:41;7.33;;;6.30;;
7583;SDS011;3833;41.764;26.204;2022-09-27T03:35:10;10.30;;;6.67;;
7583;SDS011;3833;41.764;26.204;2022-09-27T03:37:40;10.27;;;6.00;;
7583;SDS011;3833;41.764;26.204;2022-09-27T03:40:09;8.97;;;6.87;;
7583;SDS011;3833;41.764;26.204;2022-09-27T03:42:37;7.33;;;6.53;;
7583;SDS011;3833;41.764;26.204;2022-09-27T03:45:05;10.67;;;6.53;;
7583;SDS011;3833;41.764;26.204;2022-09-27T03:47:33;9.03;;;6.20;;
7583;SDS011;3833;41.764;26.204;2022-09-27T03:49:59;10.60;;;7.60;;
7583;SDS011;3833;41.764;26.204;2022-09-27T03:52:27;8.80;;;7.20;;
7583;SDS011;3833;41.764;26.204;2022-09-27T03:54:54;9.10;;;6.20;;
7583;SDS011;3833;41.764;26.204;2022-09-27T03:57:22;8.23;;;6.33;;
7583;SDS011;3833;41.764;26.204;2022-09-27T03:59:49;6.87;;;6.07;;
7583;SDS011;3833;41.764;26.204;2022-09-27T04:02:16;11.90;;;7.27;;
7583;SDS011;3833;41.764;26.204;2022-09-27T04:04:42;8.33;;;6.80;;
7583;SDS011;3833;41.764;26.204;2022-09-27T04:07:09;8.17;;;6.50;;
7583;SDS011;3833;41.764;26.204;2022-09-27T04:09:36;7.60;;;6.90;;
7583;SDS011;3833;41.764;26.204;2022-09-27T04:12:03;9.33;;;6.77;;
7583;SDS011;3833;41.764;26.204;2022-09-27T04:14:31;7.23;;;6.43;;
7583;SDS011;3833;41.764;26.204;2022-09-27T04:16:58;8.67;;;7.70;;
7583;SDS011;3833;41.764;26.204;2022-09-27T04:19:25;8.23;;;7.17;;
7583;SDS011;3833;41.764;26.204;2022-09-27T04:21:52;8.40;;;7.13;;
7583;SDS011;3833;41.764;26.204;2022-09-27T04:24:18;7.37;;;6.63;;
7583;SDS011;3833;41.764;26.204;2022-09-27T04:26:45;8.97;;;6.37;;
7583;SDS011;3833;41.764;26.204;2022-09-27T04:29:13;7.03;;;6.20;;
7583;SDS011;3833;41.764;26.204;2022-09-27T04:31:42;11.13;;;6.87;;
7583;SDS011;3833;41.764;26.204;2022-09-27T04:34:09;8.07;;;7.33;;
7583;SDS011;3833;41.764;26.204;2022-09-27T04:36:36;9.50;;;7.57;;
7583;SDS011;3833;41.764;26.204;2022-09-27T04:39:03;9.73;;;6.77;;
7583;SDS011;3833;41.764;26.204;2022-09-27T04:41:31;7.93;;;6.40;;
7583;SDS011;3833;41.764;26.204;2022-09-27T04:44:00;8.80;;;6.50;;
7583;SDS011;3833;41.764;26.204;2022-09-27T04:46:27;8.53;;;6.57;;
7583;SDS011;3833;41.764;26.204;2022-09-27T04:48:56;8.50;;;6.90;;
7583;SDS011;3833;41.764;26.204;2022-09-27T04:51:24;8.87;;;6.57;;
7583;SDS011;3833;41.764;26.204;2022-09-27T04:53:51;9.30;;;7.07;;
7583;SDS011;3833;41.764;26.204;2022-09-27T04:56:18;9.47;;;6.60;;
7583;SDS011;3833;41.764;26.204;2022-09-27T04:58:47;9.00;;;6.13;;
7583;SDS011;3833;41.764;26.204;2022-09-27T05:01:13;9.13;;;6.30;;
7583;SDS011;3833;41.764;26.204;2022-09-27T05:03:40;10.20;;;7.30;;
7583;SDS011;3833;41.764;26.204;2022-09-27T05:06:08;12.13;;;7.30;;
7583;SDS011;3833;41.764;26.204;2022-09-27T05:08:35;11.50;;;7.00;;
7583;SDS011;3833;41.764;26.204;2022-09-27T05:11:02;12.17;;;6.33;;
7583;SDS011;3833;41.764;26.204;2022-09-27T05:13:29;11.00;;;6.30;;
7583;SDS011;3833;41.764;26.204;2022-09-27T05:16:00;12.70;;;6.37;;
7583;SDS011;3833;41.764;26.204;2022-09-27T05:18:29;8.27;;;6.73;;
7583;SDS011;3833;41.764;26.204;2022-09-27T05:20:55;10.13;;;7.10;;
7583;SDS011;3833;41.764;26.204;2022-09-27T05:23:24;12.20;;;6.57;;
7583;SDS011;3833;41.764;26.204;2022-09-27T05:25:51;13.87;;;7.20;;
7583;SDS011;3833;41.764;26.204;2022-09-27T05:28:19;10.03;;;7.13;;
7583;SDS011;3833;41.764;26.204;2022-09-27T05:30:46;14.50;;;9.97;;
7583;SDS011;3833;41.764;26.204;2022-09-27T05:33:13;11.27;;;7.83;;
7583;SDS011;3833;41.764;26.204;2022-09-27T05:35:40;22.93;;;9.03;;
7583;SDS011;3833;41.764;26.204;2022-09-27T05:38:09;12.23;;;7.97;;
7583;SDS011;3833;41.764;26.204;2022-09-27T05:40:37;15.03;;;8.03;;
7583;SDS011;3833;41.764;26.204;2022-09-27T05:43:07;13.00;;;8.20;;
7583;SDS011;3833;41.764;26.204;2022-09-27T05:45:34;14.27;;;8.17;;
7583;SDS011;3833;41.764;26.204;2022-09-27T05:48:01;15.63;;;8.73;;
7583;SDS011;3833;41.764;26.204;2022-09-27T05:50:28;9.77;;;8.70;;
7583;SDS011;3833;41.764;26.204;2022-09-27T05:52:55;14.40;;;8.77;;
7583;SDS011;3833;41.764;26.204;2022-09-27T05:55:22;13.67;;;9.20;;
7583;SDS011;3833;41.764;26.204;2022-09-27T05:57:56;13.83;;;10.10;;
7583;SDS011;3833;41.764;26.204;2022-09-27T06:00:24;17.50;;;10.87;;
7583;SDS011;3833;41.764;26.204;2022-09-27T06:02:52;14.07;;;11.00;;
7583;SDS011;3833;41.764;26.204;2022-09-27T06:05:20;13.37;;;9.50;;
7583;SDS011;3833;41.764;26.204;2022-09-27T06:07:47;15.30;;;10.23;;
7583;SDS011;3833;41.764;26.204;2022-09-27T06:10:14;18.37;;;9.67;;
7583;SDS011;3833;41.764;26.204;2022-09-27T06:12:41;15.47;;;9.63;;
7583;SDS011;3833;41.764;26.204;2022-09-27T06:15:10;14.67;;;9.70;;
7583;SDS011;3833;41.764;26.204;2022-09-27T06:17:37;16.20;;;9.23;;
7583;SDS011;3833;41.764;26.204;2022-09-27T06:20:04;13.40;;;8.80;;
7583;SDS011;3833;41.764;26.204;2022-09-27T06:22:32;11.37;;;9.10;;
7583;SDS011;3833;41.764;26.204;2022-09-27T06:25:00;14.67;;;9.63;;
7583;SDS011;3833;41.764;26.204;2022-09-27T06:27:28;14.47;;;9.20;;
7583;SDS011;3833;41.764;26.204;2022-09-27T06:29:54;17.47;;;10.53;;
7583;SDS011;3833;41.764;26.204;2022-09-27T06:32:23;12.83;;;9.53;;
7583;SDS011;3833;41.764;26.204;2022-09-27T06:34:49;14.77;;;10.07;;
7583;SDS011;3833;41.764;26.204;2022-09-27T06:37:16;16.23;;;10.20;;
7583;SDS011;3833;41.764;26.204;2022-09-27T06:39:43;15.73;;;9.33;;
7583;SDS011;3833;41.764;26.204;2022-09-27T06:42:10;14.47;;;10.50;;
7583;SDS011;3833;41.764;26.204;2022-09-27T06:44:36;15.03;;;9.37;;
7583;SDS011;3833;41.764;26.204;2022-09-27T06:47:04;18.00;;;11.33;;
7583;SDS011;3833;41.764;26.204;2022-09-27T06:49:32;12.53;;;8.30;;
7583;SDS011;3833;41.764;26.204;2022-09-27T06:51:59;9.27;;;7.23;;
7583;SDS011;3833;41.764;26.204;2022-09-27T06:54:26;10.23;;;7.73;;
7583;SDS011;3833;41.764;26.204;2022-09-27T06:56:53;11.40;;;7.37;;
7583;SDS011;3833;41.764;26.204;2022-09-27T06:59:19;9.53;;;7.03;;
7583;SDS011;3833;41.764;26.204;2022-09-27T07:02:04;11.50;;;8.17;;
7583;SDS011;3833;41.764;26.204;2022-09-27T07:04:32;12.07;;;7.77;;
7583;SDS011;3833;41.764;26.204;2022-09-27T07:06:59;9.17;;;7.00;;
7583;SDS011;3833;41.764;26.204;2022-09-27T07:09:25;12.40;;;7.53;;
7583;SDS011;3833;41.764;26.204;2022-09-27T07:11:52;10.63;;;7.40;;
7583;SDS011;3833;41.764;26.204;2022-09-27T07:14:19;13.43;;;6.90;;
7583;SDS011;3833;41.764;26.204;2022-09-27T07:16:46;10.40;;;7.60;;
7583;SDS011;3833;41.764;26.204;2022-09-27T07:19:13;13.80;;;7.23;;
7583;SDS011;3833;41.764;26.204;2022-09-27T07:21:43;8.57;;;6.77;;
7583;SDS011;3833;41.764;26.204;2022-09-27T07:24:10;9.87;;;7.03;;
7583;SDS011;3833;41.764;26.204;2022-09-27T07:26:37;7.80;;;7.03;;
7583;SDS011;3833;41.764;26.204;2022-09-27T07:29:04;11.57;;;7.13;;
7583;SDS011;3833;41.764;26.204;2022-09-27T07:31:31;14.67;;;7.40;;
7583;SDS011;3833;41.764;26.204;2022-09-27T07:33:58;12.70;;;6.77;;
7583;SDS011;3833;41.764;26.204;2022-09-27T07:36:24;14.43;;;7.30;;
7583;SDS011;3833;41.764;26.204;2022-09-27T07:38:53;16.43;;;8.20;;
7583;SDS011;3833;41.764;26.204;2022-09-27T07:41:20;17.30;;;8.00;;
7583;SDS011;3833;41.764;26.204;2022-09-27T07:43:47;11.03;;;7.80;;
7583;SDS011;3833;41.764;26.204;2022-09-27T07:46:13;10.67;;;6.00;;
7583;SDS011;3833;41.764;26.204;2022-09-27T07:48:40;9.50;;;6.00;;
7583;SDS011;3833;41.764;26.204;2022-09-27T07:51:07;12.43;;;7.30;;
7583;SDS011;3833;41.764;26.204;2022-09-27T07:53:36;9.23;;;6.70;;
7583;SDS011;3833;41.764;26.204;2022-09-27T07:56:04;9.97;;;6.97;;
7583;SDS011;3833;41.764;26.204;2022-09-27T07:58:31;11.60;;;7.20;;
7583;SDS011;3833;41.764;26.204;2022-09-27T08:00:58;13.63;;;6.77;;
7583;SDS011;3833;41.764;26.204;2022-09-27T08:03:26;12.70;;;7.10;;
7583;SDS011;3833;41.764;26.204;2022-09-27T08:05:53;10.40;;;7.23;;
7583;SDS011;3833;41.764;26.204;2022-09-27T08:08:20;10.50;;;6.00;;
7583;SDS011;3833;41.764;26.204;2022-09-27T08:10:48;14.03;;;7.40;;
7583;SDS011;3833;41.764;26.204;2022-09-27T08:13:16;14.37;;;6.90;;
7583;SDS011;3833;41.764;26.204;2022-09-27T08:15:44;12.17;;;5.80;;
7583;SDS011;3833;41.764;26.204;2022-09-27T08:18:12;9.10;;;6.77;;
7583;SDS011;3833;41.764;26.204;2022-09-27T08:20:40;10.97;;;5.50;;
7583;SDS011;3833;41.764;26.204;2022-09-27T08:23:07;16.97;;;6.63;;
7583;SDS011;3833;41.764;26.204;2022-09-27T08:25:34;9.47;;;6.93;;
7583;SDS011;3833;41.764;26.204;2022-09-27T08:28:01;11.50;;;6.50;;
7583;SDS011;3833;41.764;26.204;2022-09-27T08:30:31;15.07;;;7.47;;
7583;SDS011;3833;41.764;26.204;2022-09-27T08:32:58;13.73;;;7.07;;
7583;SDS011;3833;41.764;26.204;2022-09-27T08:35:27;15.43;;;6.57;;
7583;SDS011;3833;41.764;26.204;2022-09-27T08:37:55;14.10;;;6.00;;
7583;SDS011;3833;41.764;26.204;2022-09-27T08:40:23;9.60;;;5.70;;
7583;SDS011;3833;41.764;26.204;2022-09-27T08:43:01;21.13;;;11.90;;
7583;SDS011;3833;41.764;26.204;2022-09-27T08:45:37;19.40;;;10.70;;
7583;SDS011;3833;41.764;26.204;2022-09-27T08:48:15;16.40;;;6.30;;
7583;SDS011;3833;41.764;26.204;2022-09-27T08:50:44;15.67;;;6.70;;
7583;SDS011;3833;41.764;26.204;2022-09-27T08:53:15;13.10;;;6.37;;
7583;SDS011;3833;41.764;26.204;2022-09-27T08:55:47;17.40;;;6.50;;
7583;SDS011;3833;41.764;26.204;2022-09-27T08:58:18;6.00;;;4.93;;
7583;SDS011;3833;41.764;26.204;2022-09-27T09:00:52;15.03;;;5.77;;
7583;SDS011;3833;41.764;26.204;2022-09-27T09:03:21;14.43;;;5.80;;
7583;SDS011;3833;41.764;26.204;2022-09-27T09:05:54;13.80;;;5.40;;
7583;SDS011;3833;41.764;26.204;2022-09-27T09:08:35;13.03;;;6.30;;
7583;SDS011;3833;41.764;26.204;2022-09-27T09:11:08;13.90;;;7.00;;
7583;SDS011;3833;41.764;26.204;2022-09-27T09:14:09;10.10;;;6.57;;
7583;SDS011;3833;41.764;26.204;2022-09-27T09:16:55;9.93;;;6.07;;
7583;SDS011;3833;41.764;26.204;2022-09-27T09:19:35;5.67;;;5.07;;
7583;SDS011;3833;41.764;26.204;2022-09-27T09:22:16;10.00;;;4.87;;
7583;SDS011;3833;41.764;26.204;2022-09-27T09:25:05;11.30;;;5.40;;
7583;SDS011;3833;41.764;26.204;2022-09-27T09:27:43;11.13;;;5.43;;
7583;SDS011;3833;41.764;26.204;2022-09-27T09:30:18;9.57;;;5.10;;
7583;SDS011;3833;41.764;26.204;2022-09-27T09:32:56;11.47;;;5.13;;
7583;SDS011;3833;41.764;26.204;2022-09-27T09:35:38;9.97;;;5.23;;
7583;SDS011;3833;41.764;26.204;2022-09-27T09:38:11;9.07;;;5.30;;
7583;SDS011;3833;41.764;26.204;2022-09-27T09:40:45;10.00;;;5.60;;
7583;SDS011;3833;41.764;26.204;2022-09-27T09:43:16;7.00;;;6.07;;
7583;SDS011;3833;41.764;26.204;2022-09-27T09:45:48;12.00;;;5.27;;
7583;SDS011;3833;41.764;26.204;2022-09-27T09:48:21;7.87;;;5.00;;
7583;SDS011;3833;41.764;26.204;2022-09-27T09:50:54;10.10;;;5.73;;
7583;SDS011;3833;41.764;26.204;2022-09-27T09:53:28;7.40;;;5.53;;
7583;SDS011;3833;41.764;26.204;2022-09-27T09:56:04;15.13;;;4.83;;
7583;SDS011;3833;41.764;26.204;2022-09-27T09:58:38;12.23;;;4.73;;
7583;SDS011;3833;41.764;26.204;2022-09-27T10:01:11;7.20;;;4.70;;
7583;SDS011;3833;41.764;26.204;2022-09-27T10:03:44;5.87;;;4.73;;
7583;SDS011;3833;41.764;26.204;2022-09-27T10:06:11;11.07;;;4.63;;
7583;SDS011;3833;41.764;26.204;2022-09-27T10:08:39;11.17;;;4.33;;
7583;SDS011;3833;41.764;26.204;2022-09-27T10:11:08;8.67;;;5.13;;
7583;SDS011;3833;41.764;26.204;2022-09-27T10:13:43;6.40;;;4.40;;
7583;SDS011;3833;41.764;26.204;2022-09-27T10:16:11;12.57;;;4.40;;
7583;SDS011;3833;41.764;26.204;2022-09-27T10:18:41;8.33;;;4.57;;
7583;SDS011;3833;41.764;26.204;2022-09-27T10:21:11;8.17;;;3.93;;
7583;SDS011;3833;41.764;26.204;2022-09-27T10:26:34;7.63;;;4.07;;
7583;SDS011;3833;41.764;26.204;2022-09-27T10:29:15;10.47;;;4.10;;
7583;SDS011;3833;41.764;26.204;2022-09-27T10:31:47;6.07;;;4.30;;
7583;SDS011;3833;41.764;26.204;2022-09-27T10:34:25;9.53;;;4.23;;
7583;SDS011;3833;41.764;26.204;2022-09-27T10:37:04;12.00;;;4.30;;
7583;SDS011;3833;41.764;26.204;2022-09-27T10:39:41;5.27;;;3.60;;
7583;SDS011;3833;41.764;26.204;2022-09-27T10:42:18;7.97;;;3.87;;
7583;SDS011;3833;41.764;26.204;2022-09-27T10:44:56;6.90;;;3.80;;
7583;SDS011;3833;41.764;26.204;2022-09-27T10:47:23;7.97;;;3.20;;
7583;SDS011;3833;41.764;26.204;2022-09-27T10:49:52;7.60;;;3.43;;
7583;SDS011;3833;41.764;26.204;2022-09-27T10:52:30;3.87;;;3.07;;
7583;SDS011;3833;41.764;26.204;2022-09-27T10:54:58;4.97;;;3.50;;
7583;SDS011;3833;41.764;26.204;2022-09-27T10:57:29;9.10;;;3.93;;
7583;SDS011;3833;41.764;26.204;2022-09-27T10:59:59;4.80;;;3.20;;
7583;SDS011;3833;41.764;26.204;2022-09-27T11:02:30;7.37;;;3.87;;
7583;SDS011;3833;41.764;26.204;2022-09-27T11:05:07;8.77;;;3.33;;
7583;SDS011;3833;41.764;26.204;2022-09-27T11:07:47;7.10;;;3.90;;
7583;SDS011;3833;41.764;26.204;2022-09-27T11:10:20;7.70;;;3.27;;
7583;SDS011;3833;41.764;26.204;2022-09-27T11:15:57;5.27;;;3.40;;
7583;SDS011;3833;41.764;26.204;2022-09-27T11:18:37;6.37;;;4.63;;
7583;SDS011;3833;41.764;26.204;2022-09-27T11:21:12;5.93;;;3.43;;
7583;SDS011;3833;41.764;26.204;2022-09-27T11:23:56;10.37;;;9.00;;
7583;SDS011;3833;41.764;26.204;2022-09-27T11:26:35;6.80;;;3.40;;
7583;SDS011;3833;41.764;26.204;2022-09-27T11:29:18;7.40;;;2.80;;
7583;SDS011;3833;41.764;26.204;2022-09-27T11:31:56;4.43;;;2.30;;
7583;SDS011;3833;41.764;26.204;2022-09-27T11:34:40;3.47;;;2.60;;
7583;SDS011;3833;41.764;26.204;2022-09-27T11:37:24;6.17;;;2.70;;
7583;SDS011;3833;41.764;26.204;2022-09-27T11:40:02;5.00;;;2.80;;
7583;SDS011;3833;41.764;26.204;2022-09-27T11:42:51;3.70;;;2.40;;
7583;SDS011;3833;41.764;26.204;2022-09-27T11:45:37;5.03;;;2.80;;
7583;SDS011;3833;41.764;26.204;2022-09-27T11:48:17;7.73;;;2.50;;
7583;SDS011;3833;41.764;26.204;2022-09-27T11:50:55;4.57;;;2.70;;
7583;SDS011;3833;41.764;26.204;2022-09-27T11:53:35;4.87;;;2.60;;
7583;SDS011;3833;41.764;26.204;2022-09-27T11:56:17;6.33;;;2.50;;
7583;SDS011;3833;41.764;26.204;2022-09-27T11:58:56;4.10;;;2.60;;
7583;SDS011;3833;41.764;26.204;2022-09-27T12:01:33;4.93;;;2.07;;
7583;SDS011;3833;41.764;26.204;2022-09-27T12:04:18;2.83;;;2.30;;
7583;SDS011;3833;41.764;26.204;2022-09-27T12:07:03;7.40;;;2.87;;
7583;SDS011;3833;41.764;26.204;2022-09-27T12:09:41;4.60;;;2.80;;
7583;SDS011;3833;41.764;26.204;2022-09-27T12:12:15;10.57;;;3.03;;
7583;SDS011;3833;41.764;26.204;2022-09-27T12:14:49;6.73;;;2.70;;
7583;SDS011;3833;41.764;26.204;2022-09-27T12:17:20;5.77;;;2.50;;
7583;SDS011;3833;41.764;26.204;2022-09-27T12:19:50;4.13;;;2.20;;
7583;SDS011;3833;41.764;26.204;2022-09-27T12:22:20;2.97;;;2.67;;
7583;SDS011;3833;41.764;26.204;2022-09-27T12:24:53;3.90;;;3.00;;
7583;SDS011;3833;41.764;26.204;2022-09-27T12:27:23;6.47;;;2.77;;
7583;SDS011;3833;41.764;26.204;2022-09-27T12:29:58;3.23;;;2.93;;
7583;SDS011;3833;41.764;26.204;2022-09-27T12:32:26;3.73;;;2.37;;
7583;SDS011;3833;41.764;26.204;2022-09-27T12:35:00;6.60;;;2.40;;
7583;SDS011;3833;41.764;26.204;2022-09-27T12:37:35;2.93;;;2.23;;
7583;SDS011;3833;41.764;26.204;2022-09-27T12:40:12;3.50;;;2.33;;
7583;SDS011;3833;41.764;26.204;2022-09-27T12:42:45;5.57;;;2.27;;
7583;SDS011;3833;41.764;26.204;2022-09-27T12:45:18;2.80;;;2.50;;
7583;SDS011;3833;41.764;26.204;2022-09-27T12:48:00;4.90;;;2.30;;
7583;SDS011;3833;41.764;26.204;2022-09-27T12:50:33;4.67;;;1.87;;
7583;SDS011;3833;41.764;26.204;2022-09-27T12:53:04;3.30;;;2.20;;
7583;SDS011;3833;41.764;26.204;2022-09-27T12:58:47;5.53;;;2.30;;
7583;SDS011;3833;41.764;26.204;2022-09-27T13:01:35;2.43;;;2.20;;
7583;SDS011;3833;41.764;26.204;2022-09-27T13:04:27;7.73;;;2.40;;
7583;SDS011;3833;41.764;26.204;2022-09-27T13:07:12;2.40;;;2.20;;
7583;SDS011;3833;41.764;26.204;2022-09-27T13:09:51;4.33;;;2.40;;
7583;SDS011;3833;41.764;26.204;2022-09-27T13:12:40;5.40;;;2.13;;
7583;SDS011;3833;41.764;26.204;2022-09-27T13:15:18;9.07;;;2.43;;
7583;SDS011;3833;41.764;26.204;2022-09-27T13:17:51;5.73;;;2.27;;
7583;SDS011;3833;41.764;26.204;2022-09-27T13:20:39;4.73;;;2.30;;
7583;SDS011;3833;41.764;26.204;2022-09-27T13:26:43;3.83;;;2.60;;
7583;SDS011;3833;41.764;26.204;2022-09-27T13:34:48;4.73;;;2.60;;
7583;SDS011;3833;41.764;26.204;2022-09-27T13:40:25;4.30;;;2.25;;
7583;SDS011;3833;41.764;26.204;2022-09-27T13:45:57;6.37;;;2.40;;
7583;SDS011;3833;41.764;26.204;2022-09-27T13:48:36;5.83;;;2.70;;
7583;SDS011;3833;41.764;26.204;2022-09-27T13:51:16;3.70;;;1.90;;
7583;SDS011;3833;41.764;26.204;2022-09-27T13:53:57;7.90;;;2.67;;
7583;SDS011;3833;41.764;26.204;2022-09-27T13:59:23;7.60;;;2.70;;
7583;SDS011;3833;41.764;26.204;2022-09-27T14:01:55;7.10;;;2.30;;
7583;SDS011;3833;41.764;26.204;2022-09-27T14:04:32;4.83;;;2.47;;
7583;SDS011;3833;41.764;26.204;2022-09-27T14:07:06;3.17;;;1.80;;
7583;SDS011;3833;41.764;26.204;2022-09-27T14:09:39;4.77;;;2.53;;
7583;SDS011;3833;41.764;26.204;2022-09-27T14:12:10;6.13;;;2.33;;
7583;SDS011;3833;41.764;26.204;2022-09-27T14:14:43;9.57;;;3.13;;
7583;SDS011;3833;41.764;26.204;2022-09-27T14:17:11;3.00;;;2.23;;
7583;SDS011;3833;41.764;26.204;2022-09-27T14:19:40;3.53;;;2.80;;
7583;SDS011;3833;41.764;26.204;2022-09-27T14:22:12;7.13;;;2.87;;
7583;SDS011;3833;41.764;26.204;2022-09-27T14:24:44;9.10;;;2.40;;
7583;SDS011;3833;41.764;26.204;2022-09-27T14:27:13;11.27;;;2.03;;
7583;SDS011;3833;41.764;26.204;2022-09-27T14:29:43;3.27;;;1.83;;
7583;SDS011;3833;41.764;26.204;2022-09-27T14:32:12;3.83;;;2.43;;
7583;SDS011;3833;41.764;26.204;2022-09-27T14:34:43;9.83;;;2.20;;
7583;SDS011;3833;41.764;26.204;2022-09-27T14:37:17;10.70;;;2.90;;
7583;SDS011;3833;41.764;26.204;2022-09-27T14:39:52;4.57;;;1.80;;
7583;SDS011;3833;41.764;26.204;2022-09-27T14:42:24;8.53;;;2.27;;
7583;SDS011;3833;41.764;26.204;2022-09-27T14:44:55;6.03;;;2.87;;
7583;SDS011;3833;41.764;26.204;2022-09-27T14:47:27;7.43;;;2.37;;
7583;SDS011;3833;41.764;26.204;2022-09-27T14:49:56;4.90;;;2.47;;
7583;SDS011;3833;41.764;26.204;2022-09-27T14:52:25;4.03;;;2.73;;
7583;SDS011;3833;41.764;26.204;2022-09-27T14:54:56;3.93;;;2.23;;
7583;SDS011;3833;41.764;26.204;2022-09-27T14:57:24;8.43;;;2.73;;
7583;SDS011;3833;41.764;26.204;2022-09-27T14:59:52;6.27;;;2.47;;
7583;SDS011;3833;41.764;26.204;2022-09-27T15:02:21;6.87;;;2.77;;
7583;SDS011;3833;41.764;26.204;2022-09-27T15:04:51;6.33;;;2.67;;
7583;SDS011;3833;41.764;26.204;2022-09-27T15:07:20;8.40;;;2.60;;
7583;SDS011;3833;41.764;26.204;2022-09-27T15:09:48;6.67;;;2.80;;
7583;SDS011;3833;41.764;26.204;2022-09-27T15:12:18;12.00;;;3.50;;
7583;SDS011;3833;41.764;26.204;2022-09-27T15:14:50;2.60;;;2.10;;
7583;SDS011;3833;41.764;26.204;2022-09-27T15:17:22;6.17;;;2.77;;
7583;SDS011;3833;41.764;26.204;2022-09-27T15:19:55;6.00;;;2.70;;
7583;SDS011;3833;41.764;26.204;2022-09-27T15:22:32;9.77;;;3.00;;
7583;SDS011;3833;41.764;26.204;2022-09-27T15:25:05;5.43;;;2.40;;
7583;SDS011;3833;41.764;26.204;2022-09-27T15:27:44;8.93;;;2.90;;
7583;SDS011;3833;41.764;26.204;2022-09-27T15:30:15;5.33;;;2.80;;
7583;SDS011;3833;41.764;26.204;2022-09-27T15:32:46;6.33;;;2.73;;
7583;SDS011;3833;41.764;26.204;2022-09-27T15:35:17;4.13;;;2.40;;
7583;SDS011;3833;41.764;26.204;2022-09-27T15:37:50;12.97;;;3.33;;
7583;SDS011;3833;41.764;26.204;2022-09-27T15:43:30;6.27;;;2.73;;
7583;SDS011;3833;41.764;26.204;2022-09-27T15:45:59;7.83;;;2.97;;
7583;SDS011;3833;41.764;26.204;2022-09-27T15:48:28;10.60;;;2.57;;
7583;SDS011;3833;41.764;26.204;2022-09-27T15:50:56;3.67;;;2.37;;
7583;SDS011;3833;41.764;26.204;2022-09-27T15:53:42;6.50;;;2.93;;
7583;SDS011;3833;41.764;26.204;2022-09-27T15:56:11;13.00;;;3.40;;
7583;SDS011;3833;41.764;26.204;2022-09-27T15:58:40;8.43;;;3.33;;
7583;SDS011;3833;41.764;26.204;2022-09-27T16:01:16;6.17;;;3.20;;